sensor_id;sensor_type;location;lat;lon;timestamp;P1;durP1;ratioP1;P2;durP2;ratioP2
55915;SDS011;41826;53.246;-6.670;2023-04-25T00:00:49;11.20;;;5.35;;
55915;SDS011;41826;53.246;-6.670;2023-04-25T00:03:15;5.03;;;3.05;;
55915;SDS011;41826;53.246;-6.670;2023-04-25T00:05:42;5.05;;;2.72;;
55915;SDS011;41826;53.246;-6.670;2023-04-25T00:08:07;8.65;;;3.08;;
55915;SDS011;41826;53.246;-6.670;2023-04-25T00:10:33;5.68;;;3.10;;
55915;SDS011;41826;53.246;-6.670;2023-04-25T00:12:58;6.53;;;3.30;;
55915;SDS011;41826;53.246;-6.670;2023-04-25T00:15:23;5.75;;;3.33;;
55915;SDS011;41826;53.246;-6.670;2023-04-25T00:17:49;7.95;;;4.43;;
55915;SDS011;41826;53.246;-6.670;2023-04-25T00:20:14;7.28;;;3.63;;
55915;SDS011;41826;53.246;-6.670;2023-04-25T00:22:41;15.88;;;8.13;;
55915;SDS011;41826;53.246;-6.670;2023-04-25T00:25:06;17.10;;;7.72;;
55915;SDS011;41826;53.246;-6.670;2023-04-25T00:27:32;14.30;;;6.57;;
55915;SDS011;41826;53.246;-6.670;2023-04-25T00:29:58;22.70;;;9.88;;
55915;SDS011;41826;53.246;-6.670;2023-04-25T00:32:23;17.40;;;8.77;;
55915;SDS011;41826;53.246;-6.670;2023-04-25T00:34:48;20.08;;;8.60;;
55915;SDS011;41826;53.246;-6.670;2023-04-25T00:37:14;18.23;;;9.20;;
55915;SDS011;41826;53.246;-6.670;2023-04-25T00:39:39;7.13;;;3.58;;
55915;SDS011;41826;53.246;-6.670;2023-04-25T00:42:05;8.98;;;4.57;;
55915;SDS011;41826;53.246;-6.670;2023-04-25T00:44:31;16.70;;;9.45;;
55915;SDS011;41826;53.246;-6.670;2023-04-25T00:46:57;22.58;;;8.55;;
55915;SDS011;41826;53.246;-6.670;2023-04-25T00:49:23;21.25;;;9.65;;
55915;SDS011;41826;53.246;-6.670;2023-04-25T00:51:48;18.98;;;8.80;;
55915;SDS011;41826;53.246;-6.670;2023-04-25T00:54:14;15.85;;;9.55;;
55915;SDS011;41826;53.246;-6.670;2023-04-25T00:56:40;8.25;;;4.70;;
55915;SDS011;41826;53.246;-6.670;2023-04-25T00:59:06;12.80;;;6.80;;
55915;SDS011;41826;53.246;-6.670;2023-04-25T01:01:32;15.90;;;6.10;;
55915;SDS011;41826;53.246;-6.670;2023-04-25T01:03:58;11.23;;;6.32;;
55915;SDS011;41826;53.246;-6.670;2023-04-25T01:06:24;4.80;;;3.10;;
55915;SDS011;41826;53.246;-6.670;2023-04-25T01:08:49;5.65;;;3.60;;
55915;SDS011;41826;53.246;-6.670;2023-04-25T01:11:16;7.47;;;2.80;;
55915;SDS011;41826;53.246;-6.670;2023-04-25T01:13:41;4.55;;;2.30;;
55915;SDS011;41826;53.246;-6.670;2023-04-25T01:16:07;9.07;;;2.75;;
55915;SDS011;41826;53.246;-6.670;2023-04-25T01:18:32;3.85;;;2.30;;
55915;SDS011;41826;53.246;-6.670;2023-04-25T01:21:04;3.67;;;2.05;;
55915;SDS011;41826;53.246;-6.670;2023-04-25T01:23:33;9.52;;;4.97;;
55915;SDS011;41826;53.246;-6.670;2023-04-25T01:25:59;7.25;;;2.90;;
55915;SDS011;41826;53.246;-6.670;2023-04-25T01:28:27;3.42;;;2.13;;
55915;SDS011;41826;53.246;-6.670;2023-04-25T01:30:52;5.47;;;2.00;;
55915;SDS011;41826;53.246;-6.670;2023-04-25T01:33:18;2.08;;;1.73;;
55915;SDS011;41826;53.246;-6.670;2023-04-25T01:35:45;3.03;;;2.00;;
55915;SDS011;41826;53.246;-6.670;2023-04-25T01:38:12;2.47;;;1.90;;
55915;SDS011;41826;53.246;-6.670;2023-04-25T01:40:38;2.42;;;1.70;;
55915;SDS011;41826;53.246;-6.670;2023-04-25T01:43:05;2.92;;;1.90;;
55915;SDS011;41826;53.246;-6.670;2023-04-25T01:45:33;2.10;;;1.90;;
55915;SDS011;41826;53.246;-6.670;2023-04-25T01:48:01;1.73;;;1.60;;
55915;SDS011;41826;53.246;-6.670;2023-04-25T01:50:26;3.53;;;1.90;;
55915;SDS011;41826;53.246;-6.670;2023-04-25T01:52:52;2.67;;;2.08;;
55915;SDS011;41826;53.246;-6.670;2023-04-25T01:55:18;1.88;;;1.40;;
55915;SDS011;41826;53.246;-6.670;2023-04-25T01:57:43;3.20;;;2.03;;
55915;SDS011;41826;53.246;-6.670;2023-04-25T02:00:09;3.67;;;1.90;;
55915;SDS011;41826;53.246;-6.670;2023-04-25T02:02:35;2.15;;;1.63;;
55915;SDS011;41826;53.246;-6.670;2023-04-25T02:05:01;4.10;;;2.25;;
55915;SDS011;41826;53.246;-6.670;2023-04-25T02:07:26;2.85;;;2.00;;
55915;SDS011;41826;53.246;-6.670;2023-04-25T02:09:51;5.65;;;2.75;;
55915;SDS011;41826;53.246;-6.670;2023-04-25T02:12:17;4.15;;;2.63;;
55915;SDS011;41826;53.246;-6.670;2023-04-25T02:14:42;3.95;;;2.10;;
55915;SDS011;41826;53.246;-6.670;2023-04-25T02:17:08;2.35;;;1.80;;
55915;SDS011;41826;53.246;-6.670;2023-04-25T02:19:33;2.90;;;1.80;;
55915;SDS011;41826;53.246;-6.670;2023-04-25T02:21:58;3.20;;;1.75;;
55915;SDS011;41826;53.246;-6.670;2023-04-25T02:24:24;4.28;;;2.05;;
55915;SDS011;41826;53.246;-6.670;2023-04-25T02:26:52;2.55;;;1.75;;
55915;SDS011;41826;53.246;-6.670;2023-04-25T02:29:18;3.28;;;1.45;;
55915;SDS011;41826;53.246;-6.670;2023-04-25T02:31:43;1.85;;;1.63;;
55915;SDS011;41826;53.246;-6.670;2023-04-25T02:34:09;2.45;;;1.58;;
55915;SDS011;41826;53.246;-6.670;2023-04-25T02:36:34;2.60;;;1.60;;
55915;SDS011;41826;53.246;-6.670;2023-04-25T02:39:01;5.80;;;3.58;;
55915;SDS011;41826;53.246;-6.670;2023-04-25T02:41:28;8.05;;;5.28;;
55915;SDS011;41826;53.246;-6.670;2023-04-25T02:43:53;4.20;;;2.10;;
55915;SDS011;41826;53.246;-6.670;2023-04-25T02:46:19;12.55;;;6.25;;
55915;SDS011;41826;53.246;-6.670;2023-04-25T02:48:44;6.93;;;4.60;;
55915;SDS011;41826;53.246;-6.670;2023-04-25T02:51:09;11.80;;;5.22;;
55915;SDS011;41826;53.246;-6.670;2023-04-25T02:53:35;6.20;;;4.05;;
55915;SDS011;41826;53.246;-6.670;2023-04-25T02:56:00;9.23;;;5.63;;
55915;SDS011;41826;53.246;-6.670;2023-04-25T02:58:26;5.40;;;3.60;;
55915;SDS011;41826;53.246;-6.670;2023-04-25T03:00:52;2.67;;;2.22;;
55915;SDS011;41826;53.246;-6.670;2023-04-25T03:03:17;2.05;;;1.85;;
55915;SDS011;41826;53.246;-6.670;2023-04-25T03:05:46;4.53;;;2.67;;
55915;SDS011;41826;53.246;-6.670;2023-04-25T03:08:11;3.10;;;2.15;;
55915;SDS011;41826;53.246;-6.670;2023-04-25T03:10:38;5.47;;;2.75;;
55915;SDS011;41826;53.246;-6.670;2023-04-25T03:13:04;8.07;;;2.90;;
55915;SDS011;41826;53.246;-6.670;2023-04-25T03:15:30;3.22;;;2.00;;
55915;SDS011;41826;53.246;-6.670;2023-04-25T03:17:56;3.65;;;1.85;;
55915;SDS011;41826;53.246;-6.670;2023-04-25T03:20:21;7.45;;;4.03;;
55915;SDS011;41826;53.246;-6.670;2023-04-25T03:22:47;7.07;;;4.10;;
55915;SDS011;41826;53.246;-6.670;2023-04-25T03:25:12;2.50;;;2.15;;
55915;SDS011;41826;53.246;-6.670;2023-04-25T03:27:37;3.38;;;2.13;;
55915;SDS011;41826;53.246;-6.670;2023-04-25T03:30:03;4.70;;;3.92;;
55915;SDS011;41826;53.246;-6.670;2023-04-25T03:32:29;3.30;;;2.58;;
55915;SDS011;41826;53.246;-6.670;2023-04-25T03:34:54;9.63;;;4.13;;
55915;SDS011;41826;53.246;-6.670;2023-04-25T03:37:20;4.97;;;2.58;;
55915;SDS011;41826;53.246;-6.670;2023-04-25T03:39:46;5.60;;;2.90;;
55915;SDS011;41826;53.246;-6.670;2023-04-25T03:42:11;1.90;;;1.80;;
55915;SDS011;41826;53.246;-6.670;2023-04-25T03:44:36;2.03;;;1.90;;
55915;SDS011;41826;53.246;-6.670;2023-04-25T03:47:02;4.15;;;2.45;;
55915;SDS011;41826;53.246;-6.670;2023-04-25T03:49:27;2.45;;;1.58;;
55915;SDS011;41826;53.246;-6.670;2023-04-25T03:51:52;2.25;;;1.60;;
55915;SDS011;41826;53.246;-6.670;2023-04-25T03:54:18;3.17;;;2.60;;
55915;SDS011;41826;53.246;-6.670;2023-04-25T03:56:43;3.38;;;3.03;;
55915;SDS011;41826;53.246;-6.670;2023-04-25T03:59:08;1.73;;;1.33;;
55915;SDS011;41826;53.246;-6.670;2023-04-25T04:01:34;2.85;;;1.48;;
55915;SDS011;41826;53.246;-6.670;2023-04-25T04:04:00;5.60;;;3.95;;
55915;SDS011;41826;53.246;-6.670;2023-04-25T04:06:25;7.40;;;4.18;;
55915;SDS011;41826;53.246;-6.670;2023-04-25T04:08:51;4.78;;;2.65;;
55915;SDS011;41826;53.246;-6.670;2023-04-25T04:11:16;2.67;;;1.98;;
55915;SDS011;41826;53.246;-6.670;2023-04-25T04:13:42;1.70;;;1.60;;
55915;SDS011;41826;53.246;-6.670;2023-04-25T04:16:07;2.22;;;1.58;;
55915;SDS011;41826;53.246;-6.670;2023-04-25T04:18:33;1.65;;;1.40;;
55915;SDS011;41826;53.246;-6.670;2023-04-25T04:20:58;1.50;;;1.40;;
55915;SDS011;41826;53.246;-6.670;2023-04-25T04:23:24;3.58;;;1.70;;
55915;SDS011;41826;53.246;-6.670;2023-04-25T04:25:52;2.60;;;1.52;;
55915;SDS011;41826;53.246;-6.670;2023-04-25T04:28:18;1.90;;;1.77;;
55915;SDS011;41826;53.246;-6.670;2023-04-25T04:30:43;1.40;;;1.30;;
55915;SDS011;41826;53.246;-6.670;2023-04-25T04:33:11;4.63;;;1.30;;
55915;SDS011;41826;53.246;-6.670;2023-04-25T04:35:37;2.65;;;1.30;;
55915;SDS011;41826;53.246;-6.670;2023-04-25T04:38:03;1.45;;;0.90;;
55915;SDS011;41826;53.246;-6.670;2023-04-25T04:40:29;1.75;;;1.50;;
55915;SDS011;41826;53.246;-6.670;2023-04-25T04:42:56;2.20;;;1.98;;
55915;SDS011;41826;53.246;-6.670;2023-04-25T04:45:22;1.80;;;1.30;;
55915;SDS011;41826;53.246;-6.670;2023-04-25T04:47:48;2.00;;;1.75;;
55915;SDS011;41826;53.246;-6.670;2023-04-25T04:50:14;1.90;;;1.38;;
55915;SDS011;41826;53.246;-6.670;2023-04-25T04:52:41;3.05;;;1.30;;
55915;SDS011;41826;53.246;-6.670;2023-04-25T04:55:06;2.25;;;1.73;;
55915;SDS011;41826;53.246;-6.670;2023-04-25T04:57:33;2.80;;;1.50;;
55915;SDS011;41826;53.246;-6.670;2023-04-25T04:59:59;2.17;;;1.25;;
55915;SDS011;41826;53.246;-6.670;2023-04-25T05:02:25;2.00;;;1.45;;
55915;SDS011;41826;53.246;-6.670;2023-04-25T05:04:51;2.00;;;1.48;;
55915;SDS011;41826;53.246;-6.670;2023-04-25T05:07:17;4.22;;;1.75;;
55915;SDS011;41826;53.246;-6.670;2023-04-25T05:09:43;1.48;;;1.30;;
55915;SDS011;41826;53.246;-6.670;2023-04-25T05:12:09;2.95;;;2.22;;
55915;SDS011;41826;53.246;-6.670;2023-04-25T05:14:34;3.40;;;2.80;;
55915;SDS011;41826;53.246;-6.670;2023-04-25T05:17:00;2.35;;;2.00;;
55915;SDS011;41826;53.246;-6.670;2023-04-25T05:19:26;2.00;;;1.63;;
55915;SDS011;41826;53.246;-6.670;2023-04-25T05:21:52;2.25;;;1.98;;
55915;SDS011;41826;53.246;-6.670;2023-04-25T05:24:17;1.92;;;1.60;;
55915;SDS011;41826;53.246;-6.670;2023-04-25T05:26:43;1.92;;;1.75;;
55915;SDS011;41826;53.246;-6.670;2023-04-25T05:29:08;4.22;;;3.25;;
55915;SDS011;41826;53.246;-6.670;2023-04-25T05:31:35;7.70;;;5.25;;
55915;SDS011;41826;53.246;-6.670;2023-04-25T05:34:01;7.20;;;4.88;;
55915;SDS011;41826;53.246;-6.670;2023-04-25T05:36:26;10.90;;;6.07;;
55915;SDS011;41826;53.246;-6.670;2023-04-25T05:38:52;4.40;;;2.15;;
55915;SDS011;41826;53.246;-6.670;2023-04-25T05:41:18;4.90;;;2.20;;
55915;SDS011;41826;53.246;-6.670;2023-04-25T05:43:43;2.78;;;1.80;;
55915;SDS011;41826;53.246;-6.670;2023-04-25T05:46:12;3.20;;;1.55;;
55915;SDS011;41826;53.246;-6.670;2023-04-25T05:48:38;4.80;;;2.30;;
55915;SDS011;41826;53.246;-6.670;2023-04-25T05:51:04;3.20;;;1.95;;
55915;SDS011;41826;53.246;-6.670;2023-04-25T05:53:29;9.18;;;4.45;;
55915;SDS011;41826;53.246;-6.670;2023-04-25T05:55:55;10.10;;;6.15;;
55915;SDS011;41826;53.246;-6.670;2023-04-25T05:58:21;3.47;;;2.80;;
55915;SDS011;41826;53.246;-6.670;2023-04-25T06:00:47;9.35;;;5.93;;
55915;SDS011;41826;53.246;-6.670;2023-04-25T06:03:12;7.90;;;5.38;;
55915;SDS011;41826;53.246;-6.670;2023-04-25T06:05:42;10.40;;;6.03;;
55915;SDS011;41826;53.246;-6.670;2023-04-25T06:08:08;3.97;;;2.92;;
55915;SDS011;41826;53.246;-6.670;2023-04-25T06:10:34;4.25;;;2.42;;
55915;SDS011;41826;53.246;-6.670;2023-04-25T06:13:00;6.30;;;3.85;;
55915;SDS011;41826;53.246;-6.670;2023-04-25T06:15:26;7.80;;;4.28;;
55915;SDS011;41826;53.246;-6.670;2023-04-25T06:17:51;9.00;;;5.88;;
55915;SDS011;41826;53.246;-6.670;2023-04-25T06:20:17;7.43;;;4.68;;
55915;SDS011;41826;53.246;-6.670;2023-04-25T06:22:42;10.35;;;4.75;;
55915;SDS011;41826;53.246;-6.670;2023-04-25T06:25:09;8.02;;;5.28;;
55915;SDS011;41826;53.246;-6.670;2023-04-25T06:27:34;5.25;;;4.03;;
55915;SDS011;41826;53.246;-6.670;2023-04-25T06:29:59;13.38;;;4.82;;
55915;SDS011;41826;53.246;-6.670;2023-04-25T06:32:25;10.70;;;5.00;;
55915;SDS011;41826;53.246;-6.670;2023-04-25T06:34:52;4.15;;;2.80;;
55915;SDS011;41826;53.246;-6.670;2023-04-25T06:37:18;8.60;;;4.80;;
55915;SDS011;41826;53.246;-6.670;2023-04-25T06:39:43;7.90;;;4.47;;
55915;SDS011;41826;53.246;-6.670;2023-04-25T06:42:08;5.80;;;4.40;;
55915;SDS011;41826;53.246;-6.670;2023-04-25T06:44:34;5.88;;;3.80;;
55915;SDS011;41826;53.246;-6.670;2023-04-25T06:47:01;7.78;;;4.68;;
55915;SDS011;41826;53.246;-6.670;2023-04-25T06:49:26;6.68;;;3.63;;
55915;SDS011;41826;53.246;-6.670;2023-04-25T06:51:52;4.85;;;3.40;;
55915;SDS011;41826;53.246;-6.670;2023-04-25T06:54:17;6.30;;;3.15;;
55915;SDS011;41826;53.246;-6.670;2023-04-25T06:56:43;7.22;;;4.00;;
55915;SDS011;41826;53.246;-6.670;2023-04-25T06:59:09;8.57;;;3.80;;
55915;SDS011;41826;53.246;-6.670;2023-04-25T07:01:34;8.25;;;3.95;;
55915;SDS011;41826;53.246;-6.670;2023-04-25T07:04:01;6.93;;;4.30;;
55915;SDS011;41826;53.246;-6.670;2023-04-25T07:06:28;6.78;;;3.53;;
55915;SDS011;41826;53.246;-6.670;2023-04-25T07:08:54;7.68;;;3.50;;
55915;SDS011;41826;53.246;-6.670;2023-04-25T07:11:22;8.02;;;3.75;;
55915;SDS011;41826;53.246;-6.670;2023-04-25T07:13:47;6.72;;;2.90;;
55915;SDS011;41826;53.246;-6.670;2023-04-25T07:16:14;9.88;;;3.28;;
55915;SDS011;41826;53.246;-6.670;2023-04-25T07:18:42;6.05;;;2.83;;
55915;SDS011;41826;53.246;-6.670;2023-04-25T07:21:08;5.78;;;2.92;;
55915;SDS011;41826;53.246;-6.670;2023-04-25T07:23:35;6.32;;;2.75;;
55915;SDS011;41826;53.246;-6.670;2023-04-25T07:26:00;5.05;;;3.30;;
55915;SDS011;41826;53.246;-6.670;2023-04-25T07:28:27;4.63;;;2.80;;
55915;SDS011;41826;53.246;-6.670;2023-04-25T07:30:52;9.50;;;3.45;;
55915;SDS011;41826;53.246;-6.670;2023-04-25T07:33:18;7.53;;;3.25;;
55915;SDS011;41826;53.246;-6.670;2023-04-25T07:35:45;9.35;;;3.63;;
55915;SDS011;41826;53.246;-6.670;2023-04-25T07:38:10;11.05;;;3.45;;
55915;SDS011;41826;53.246;-6.670;2023-04-25T07:40:36;6.18;;;2.90;;
55915;SDS011;41826;53.246;-6.670;2023-04-25T07:43:01;5.57;;;2.85;;
55915;SDS011;41826;53.246;-6.670;2023-04-25T07:45:27;4.22;;;3.00;;
55915;SDS011;41826;53.246;-6.670;2023-04-25T07:47:52;5.47;;;3.30;;
55915;SDS011;41826;53.246;-6.670;2023-04-25T07:50:18;3.92;;;2.55;;
55915;SDS011;41826;53.246;-6.670;2023-04-25T07:52:43;6.68;;;3.40;;
55915;SDS011;41826;53.246;-6.670;2023-04-25T07:55:08;3.45;;;2.00;;
55915;SDS011;41826;53.246;-6.670;2023-04-25T07:57:34;6.45;;;3.13;;
55915;SDS011;41826;53.246;-6.670;2023-04-25T07:59:59;3.90;;;2.50;;
55915;SDS011;41826;53.246;-6.670;2023-04-25T08:02:25;8.65;;;2.53;;
55915;SDS011;41826;53.246;-6.670;2023-04-25T08:04:53;5.53;;;2.90;;
55915;SDS011;41826;53.246;-6.670;2023-04-25T08:07:18;2.75;;;2.30;;
55915;SDS011;41826;53.246;-6.670;2023-04-25T08:09:45;5.57;;;2.42;;
55915;SDS011;41826;53.246;-6.670;2023-04-25T08:12:10;8.20;;;2.70;;
55915;SDS011;41826;53.246;-6.670;2023-04-25T08:14:36;4.95;;;2.30;;
55915;SDS011;41826;53.246;-6.670;2023-04-25T08:17:02;6.53;;;2.70;;
55915;SDS011;41826;53.246;-6.670;2023-04-25T08:19:28;5.75;;;2.63;;
55915;SDS011;41826;53.246;-6.670;2023-04-25T08:21:55;2.45;;;2.22;;
55915;SDS011;41826;53.246;-6.670;2023-04-25T08:24:21;2.25;;;2.05;;
55915;SDS011;41826;53.246;-6.670;2023-04-25T08:26:47;6.60;;;2.70;;
55915;SDS011;41826;53.246;-6.670;2023-04-25T08:29:14;4.65;;;2.40;;
55915;SDS011;41826;53.246;-6.670;2023-04-25T08:31:39;6.30;;;2.53;;
55915;SDS011;41826;53.246;-6.670;2023-04-25T08:34:05;5.28;;;2.25;;
55915;SDS011;41826;53.246;-6.670;2023-04-25T08:36:30;6.65;;;2.55;;
55915;SDS011;41826;53.246;-6.670;2023-04-25T08:38:56;3.90;;;1.92;;
55915;SDS011;41826;53.246;-6.670;2023-04-25T08:41:21;5.75;;;2.55;;
55915;SDS011;41826;53.246;-6.670;2023-04-25T08:43:48;5.60;;;2.30;;
55915;SDS011;41826;53.246;-6.670;2023-04-25T08:46:17;3.17;;;2.40;;
55915;SDS011;41826;53.246;-6.670;2023-04-25T08:48:45;5.50;;;2.53;;
55915;SDS011;41826;53.246;-6.670;2023-04-25T08:51:14;6.50;;;2.65;;
55915;SDS011;41826;53.246;-6.670;2023-04-25T08:53:46;5.00;;;2.38;;
55915;SDS011;41826;53.246;-6.670;2023-04-25T08:56:16;5.18;;;1.90;;
55915;SDS011;41826;53.246;-6.670;2023-04-25T08:58:50;4.30;;;2.53;;
55915;SDS011;41826;53.246;-6.670;2023-04-25T09:01:16;2.80;;;2.20;;
55915;SDS011;41826;53.246;-6.670;2023-04-25T09:03:42;5.95;;;2.33;;
55915;SDS011;41826;53.246;-6.670;2023-04-25T09:06:10;4.43;;;1.73;;
55915;SDS011;41826;53.246;-6.670;2023-04-25T09:08:36;4.43;;;2.30;;
55915;SDS011;41826;53.246;-6.670;2023-04-25T09:11:02;5.60;;;2.00;;
55915;SDS011;41826;53.246;-6.670;2023-04-25T09:13:28;2.28;;;1.60;;
55915;SDS011;41826;53.246;-6.670;2023-04-25T09:15:54;1.50;;;1.25;;
55915;SDS011;41826;53.246;-6.670;2023-04-25T09:18:27;3.33;;;1.75;;
55915;SDS011;41826;53.246;-6.670;2023-04-25T09:21:09;3.00;;;1.25;;
55915;SDS011;41826;53.246;-6.670;2023-04-25T09:23:43;4.07;;;1.35;;
55915;SDS011;41826;53.246;-6.670;2023-04-25T09:26:13;2.70;;;1.27;;
55915;SDS011;41826;53.246;-6.670;2023-04-25T09:28:42;1.33;;;1.10;;
55915;SDS011;41826;53.246;-6.670;2023-04-25T09:31:09;5.82;;;1.50;;
55915;SDS011;41826;53.246;-6.670;2023-04-25T09:33:38;2.22;;;1.30;;
55915;SDS011;41826;53.246;-6.670;2023-04-25T09:36:06;4.15;;;0.93;;
55915;SDS011;41826;53.246;-6.670;2023-04-25T09:38:40;1.77;;;1.00;;
55915;SDS011;41826;53.246;-6.670;2023-04-25T09:41:07;3.28;;;0.85;;
55915;SDS011;41826;53.246;-6.670;2023-04-25T09:43:33;1.02;;;0.90;;
55915;SDS011;41826;53.246;-6.670;2023-04-25T09:45:58;6.43;;;1.10;;
55915;SDS011;41826;53.246;-6.670;2023-04-25T09:48:25;1.70;;;0.98;;
55915;SDS011;41826;53.246;-6.670;2023-04-25T09:51:13;7.60;;;1.50;;
55915;SDS011;41826;53.246;-6.670;2023-04-25T09:53:42;1.50;;;1.40;;
55915;SDS011;41826;53.246;-6.670;2023-04-25T09:56:09;3.83;;;0.98;;
55915;SDS011;41826;53.246;-6.670;2023-04-25T09:58:38;3.55;;;0.93;;
55915;SDS011;41826;53.246;-6.670;2023-04-25T10:01:08;3.20;;;1.00;;
55915;SDS011;41826;53.246;-6.670;2023-04-25T10:03:36;1.83;;;0.70;;
55915;SDS011;41826;53.246;-6.670;2023-04-25T10:06:07;4.32;;;1.05;;
55915;SDS011;41826;53.246;-6.670;2023-04-25T10:08:37;3.92;;;0.93;;
55915;SDS011;41826;53.246;-6.670;2023-04-25T10:11:05;3.67;;;0.98;;
55915;SDS011;41826;53.246;-6.670;2023-04-25T10:13:32;3.90;;;1.33;;
55915;SDS011;41826;53.246;-6.670;2023-04-25T10:15:58;1.85;;;0.65;;
55915;SDS011;41826;53.246;-6.670;2023-04-25T10:18:30;3.40;;;1.40;;
55915;SDS011;41826;53.246;-6.670;2023-04-25T10:20:58;2.17;;;1.10;;
55915;SDS011;41826;53.246;-6.670;2023-04-25T10:23:25;2.92;;;0.98;;
55915;SDS011;41826;53.246;-6.670;2023-04-25T10:25:52;1.95;;;0.90;;
55915;SDS011;41826;53.246;-6.670;2023-04-25T10:28:18;5.95;;;0.90;;
55915;SDS011;41826;53.246;-6.670;2023-04-25T10:30:57;1.88;;;1.77;;
55915;SDS011;41826;53.246;-6.670;2023-04-25T10:33:37;1.73;;;0.88;;
55915;SDS011;41826;53.246;-6.670;2023-04-25T10:36:10;2.22;;;1.35;;
55915;SDS011;41826;53.246;-6.670;2023-04-25T10:38:37;3.20;;;0.93;;
55915;SDS011;41826;53.246;-6.670;2023-04-25T10:41:03;1.38;;;0.80;;
55915;SDS011;41826;53.246;-6.670;2023-04-25T10:45:55;1.40;;;0.70;;
55915;SDS011;41826;53.246;-6.670;2023-04-25T10:48:27;3.10;;;1.10;;
55915;SDS011;41826;53.246;-6.670;2023-04-25T10:51:09;2.63;;;1.35;;
55915;SDS011;41826;53.246;-6.670;2023-04-25T10:53:36;1.58;;;1.42;;
55915;SDS011;41826;53.246;-6.670;2023-04-25T10:58:41;2.42;;;0.80;;
55915;SDS011;41826;53.246;-6.670;2023-04-25T11:01:07;4.35;;;1.42;;
55915;SDS011;41826;53.246;-6.670;2023-04-25T11:03:33;2.70;;;1.00;;
55915;SDS011;41826;53.246;-6.670;2023-04-25T11:06:05;1.98;;;0.98;;
55915;SDS011;41826;53.246;-6.670;2023-04-25T11:08:48;3.50;;;1.10;;
55915;SDS011;41826;53.246;-6.670;2023-04-25T11:11:17;2.25;;;1.08;;
55915;SDS011;41826;53.246;-6.670;2023-04-25T11:13:47;4.32;;;1.38;;
55915;SDS011;41826;53.246;-6.670;2023-04-25T11:16:14;2.65;;;1.10;;
55915;SDS011;41826;53.246;-6.670;2023-04-25T11:18:41;2.58;;;1.00;;
55915;SDS011;41826;53.246;-6.670;2023-04-25T11:21:07;3.10;;;1.27;;
55915;SDS011;41826;53.246;-6.670;2023-04-25T11:23:32;3.60;;;1.17;;
55915;SDS011;41826;53.246;-6.670;2023-04-25T11:25:58;3.75;;;1.30;;
55915;SDS011;41826;53.246;-6.670;2023-04-25T11:28:26;2.45;;;1.10;;
55915;SDS011;41826;53.246;-6.670;2023-04-25T11:30:52;2.75;;;1.17;;
55915;SDS011;41826;53.246;-6.670;2023-04-25T11:33:18;2.80;;;1.10;;
55915;SDS011;41826;53.246;-6.670;2023-04-25T11:35:48;4.80;;;1.30;;
55915;SDS011;41826;53.246;-6.670;2023-04-25T11:38:14;2.08;;;1.10;;
55915;SDS011;41826;53.246;-6.670;2023-04-25T11:40:40;2.72;;;1.20;;
55915;SDS011;41826;53.246;-6.670;2023-04-25T11:43:05;5.70;;;1.60;;
55915;SDS011;41826;53.246;-6.670;2023-04-25T11:45:31;4.25;;;1.67;;
55915;SDS011;41826;53.246;-6.670;2023-04-25T11:47:56;3.45;;;1.30;;
55915;SDS011;41826;53.246;-6.670;2023-04-25T11:50:22;2.30;;;1.58;;
55915;SDS011;41826;53.246;-6.670;2023-04-25T11:52:47;2.28;;;1.30;;
55915;SDS011;41826;53.246;-6.670;2023-04-25T11:55:17;3.58;;;1.30;;
55915;SDS011;41826;53.246;-6.670;2023-04-25T11:57:45;7.25;;;1.27;;
55915;SDS011;41826;53.246;-6.670;2023-04-25T12:00:16;3.55;;;0.80;;
55915;SDS011;41826;53.246;-6.670;2023-04-25T12:02:44;2.28;;;1.13;;
55915;SDS011;41826;53.246;-6.670;2023-04-25T12:05:11;2.83;;;1.00;;
55915;SDS011;41826;53.246;-6.670;2023-04-25T12:07:38;3.35;;;1.17;;
55915;SDS011;41826;53.246;-6.670;2023-04-25T12:10:09;2.95;;;0.90;;
55915;SDS011;41826;53.246;-6.670;2023-04-25T12:12:38;8.63;;;4.70;;
55915;SDS011;41826;53.246;-6.670;2023-04-25T12:15:16;10.50;;;5.00;;
55915;SDS011;41826;53.246;-6.670;2023-04-25T12:17:46;5.95;;;2.70;;
55915;SDS011;41826;53.246;-6.670;2023-04-25T12:20:14;4.28;;;1.20;;
55915;SDS011;41826;53.246;-6.670;2023-04-25T12:22:44;2.20;;;1.10;;
55915;SDS011;41826;53.246;-6.670;2023-04-25T12:25:12;0.73;;;0.73;;
55915;SDS011;41826;53.246;-6.670;2023-04-25T12:27:37;5.53;;;1.60;;
55915;SDS011;41826;53.246;-6.670;2023-04-25T12:30:07;3.10;;;1.50;;
55915;SDS011;41826;53.246;-6.670;2023-04-25T12:32:32;2.53;;;1.00;;
55915;SDS011;41826;53.246;-6.670;2023-04-25T12:34:58;2.88;;;0.90;;
55915;SDS011;41826;53.246;-6.670;2023-04-25T12:37:23;2.15;;;0.80;;
55915;SDS011;41826;53.246;-6.670;2023-04-25T12:39:49;1.02;;;0.82;;
55915;SDS011;41826;53.246;-6.670;2023-04-25T12:42:14;0.90;;;0.80;;
55915;SDS011;41826;53.246;-6.670;2023-04-25T12:44:39;2.35;;;0.77;;
55915;SDS011;41826;53.246;-6.670;2023-04-25T12:47:05;1.13;;;0.80;;
55915;SDS011;41826;53.246;-6.670;2023-04-25T12:49:31;3.05;;;0.93;;
55915;SDS011;41826;53.246;-6.670;2023-04-25T12:51:57;4.28;;;0.73;;
55915;SDS011;41826;53.246;-6.670;2023-04-25T12:54:22;2.47;;;0.90;;
55915;SDS011;41826;53.246;-6.670;2023-04-25T12:56:48;3.70;;;0.80;;
55915;SDS011;41826;53.246;-6.670;2023-04-25T12:59:15;1.38;;;0.80;;
55915;SDS011;41826;53.246;-6.670;2023-04-25T13:01:40;1.65;;;0.95;;
55915;SDS011;41826;53.246;-6.670;2023-04-25T13:04:05;2.30;;;0.90;;
55915;SDS011;41826;53.246;-6.670;2023-04-25T13:06:31;5.55;;;0.82;;
55915;SDS011;41826;53.246;-6.670;2023-04-25T13:08:56;4.80;;;0.90;;
55915;SDS011;41826;53.246;-6.670;2023-04-25T13:11:22;1.58;;;0.90;;
55915;SDS011;41826;53.246;-6.670;2023-04-25T13:13:48;1.65;;;1.20;;
55915;SDS011;41826;53.246;-6.670;2023-04-25T13:16:13;6.28;;;1.63;;
55915;SDS011;41826;53.246;-6.670;2023-04-25T13:18:40;6.75;;;1.90;;
55915;SDS011;41826;53.246;-6.670;2023-04-25T13:21:08;3.63;;;1.60;;
55915;SDS011;41826;53.246;-6.670;2023-04-25T13:23:34;2.55;;;1.70;;
55915;SDS011;41826;53.246;-6.670;2023-04-25T13:26:00;9.07;;;1.88;;
55915;SDS011;41826;53.246;-6.670;2023-04-25T13:28:26;4.63;;;2.10;;
55915;SDS011;41826;53.246;-6.670;2023-04-25T13:30:52;8.25;;;2.13;;
55915;SDS011;41826;53.246;-6.670;2023-04-25T13:33:19;4.30;;;1.38;;
55915;SDS011;41826;53.246;-6.670;2023-04-25T13:35:45;7.50;;;1.52;;
55915;SDS011;41826;53.246;-6.670;2023-04-25T13:38:12;4.35;;;1.30;;
55915;SDS011;41826;53.246;-6.670;2023-04-25T13:40:38;3.25;;;1.30;;
55915;SDS011;41826;53.246;-6.670;2023-04-25T13:43:04;6.57;;;2.00;;
55915;SDS011;41826;53.246;-6.670;2023-04-25T13:45:31;5.20;;;1.73;;
55915;SDS011;41826;53.246;-6.670;2023-04-25T13:47:56;3.50;;;1.90;;
55915;SDS011;41826;53.246;-6.670;2023-04-25T13:50:22;5.53;;;1.50;;
55915;SDS011;41826;53.246;-6.670;2023-04-25T13:52:48;6.18;;;1.77;;
55915;SDS011;41826;53.246;-6.670;2023-04-25T13:55:14;5.95;;;1.67;;
55915;SDS011;41826;53.246;-6.670;2023-04-25T13:57:40;3.58;;;1.73;;
55915;SDS011;41826;53.246;-6.670;2023-04-25T14:00:05;7.43;;;1.33;;
55915;SDS011;41826;53.246;-6.670;2023-04-25T14:02:34;5.57;;;1.67;;
55915;SDS011;41826;53.246;-6.670;2023-04-25T14:05:00;5.40;;;1.65;;
55915;SDS011;41826;53.246;-6.670;2023-04-25T14:07:26;3.03;;;1.58;;
55915;SDS011;41826;53.246;-6.670;2023-04-25T14:09:51;7.55;;;1.70;;
55915;SDS011;41826;53.246;-6.670;2023-04-25T14:12:17;4.72;;;1.40;;
55915;SDS011;41826;53.246;-6.670;2023-04-25T14:14:42;5.32;;;1.92;;
55915;SDS011;41826;53.246;-6.670;2023-04-25T14:17:08;2.72;;;1.52;;
55915;SDS011;41826;53.246;-6.670;2023-04-25T14:19:35;6.70;;;1.75;;
55915;SDS011;41826;53.246;-6.670;2023-04-25T14:22:02;4.25;;;1.42;;
55915;SDS011;41826;53.246;-6.670;2023-04-25T14:24:28;9.02;;;1.55;;
55915;SDS011;41826;53.246;-6.670;2023-04-25T14:26:53;5.00;;;1.70;;
55915;SDS011;41826;53.246;-6.670;2023-04-25T14:29:18;6.00;;;1.73;;
55915;SDS011;41826;53.246;-6.670;2023-04-25T14:31:44;3.53;;;1.50;;
55915;SDS011;41826;53.246;-6.670;2023-04-25T14:34:10;4.38;;;1.38;;